createdAt,value
2022-11-25T00:00:39.922Z,60.73
2022-11-25T00:03:09.664Z,57.73
2022-11-25T00:05:39.110Z,57.40
2022-11-25T00:08:08.253Z,58.50
2022-11-25T00:10:39.184Z,54.80
2022-11-25T00:13:09.166Z,55.43
2022-11-25T00:15:38.454Z,54.70
2022-11-25T00:18:07.590Z,52.90
2022-11-25T00:20:38.831Z,54.50
2022-11-25T00:23:08.173Z,56.30
2022-11-25T00:25:39.677Z,54.27
2022-11-25T00:28:09.147Z,54.80
2022-11-25T00:30:38.439Z,51.90
2022-11-25T00:33:07.674Z,53.27
2022-11-25T00:35:37.192Z,57.20
2022-11-25T00:38:06.546Z,56.23
2022-11-25T00:40:35.674Z,55.43
2022-11-25T00:43:23.955Z,56.70
2022-11-25T00:45:52.757Z,51.93
2022-11-25T00:48:22.209Z,51.87
2022-11-25T00:50:51.147Z,53.07
2022-11-25T00:53:19.889Z,57.77
2022-11-25T00:56:06.132Z,55.67
2022-11-25T00:58:36.996Z,51.53
2022-11-25T01:01:06.731Z,52.13
2022-11-25T01:03:37.565Z,50.37
2022-11-25T01:06:08.473Z,49.97
2022-11-25T01:08:38.503Z,48.17
2022-11-25T01:11:10.030Z,48.53
2022-11-25T01:13:42.524Z,51.23
2022-11-25T01:16:14.235Z,44.63
2022-11-25T01:18:43.636Z,43.57
2022-11-25T01:21:16.034Z,43.43
2022-11-25T01:23:48.969Z,41.23
2022-11-25T01:26:19.697Z,38.77
2022-11-25T01:28:51.203Z,40.37
2022-11-25T01:31:22.289Z,38.50
2022-11-25T01:33:56.423Z,36.37
2022-11-25T01:36:27.579Z,38.73
2022-11-25T01:38:58.475Z,38.33
2022-11-25T01:41:30.671Z,38.77
2022-11-25T01:44:11.623Z,39.30
2022-11-25T01:47:07.249Z,36.53
2022-11-25T01:49:42.277Z,35.80
2022-11-25T01:52:17.507Z,39.03
2022-11-25T01:54:52.887Z,36.33
2022-11-25T01:57:26.767Z,39.93
2022-11-25T02:00:01.238Z,38.93
2022-11-25T02:02:34.416Z,40.10
2022-11-25T02:05:05.321Z,41.03
2022-11-25T02:07:36.802Z,40.30
2022-11-25T02:10:09.077Z,41.13
2022-11-25T02:12:40.692Z,40.30
2022-11-25T02:15:12.889Z,39.83
2022-11-25T02:17:44.710Z,42.47
2022-11-25T02:20:31.710Z,40.67
2022-11-25T02:23:11.282Z,40.13
2022-11-25T02:25:44.012Z,43.87
2022-11-25T02:28:18.668Z,43.03
2022-11-25T02:30:48.411Z,40.50
2022-11-25T02:33:18.081Z,39.90
2022-11-25T02:35:52.302Z,41.10
2022-11-25T02:38:25.608Z,41.80
2022-11-25T02:41:01.835Z,41.10
2022-11-25T02:43:31.149Z,44.20
2022-11-25T02:46:03.712Z,40.53
2022-11-25T02:51:28.687Z,40.00
2022-11-25T02:53:58.894Z,40.37
2022-11-25T02:56:33.183Z,41.37
2022-11-25T02:59:03.166Z,43.53
2022-11-25T03:01:33.175Z,43.43
2022-11-25T03:04:04.484Z,41.90
2022-11-25T03:06:34.911Z,39.50
2022-11-25T03:09:03.769Z,40.07
2022-11-25T03:11:52.619Z,40.60
2022-11-25T03:14:24.332Z,40.90
2022-11-25T03:16:53.345Z,40.57
2022-11-25T03:19:22.605Z,43.20
2022-11-25T03:21:54.301Z,41.93
2022-11-25T03:24:23.221Z,40.83
2022-11-25T03:26:53.767Z,39.63
2022-11-25T03:29:22.970Z,42.23
2022-11-25T03:31:52.914Z,42.10
2022-11-25T03:34:23.180Z,39.53
2022-11-25T03:36:53.091Z,40.97
2022-11-25T03:39:26.040Z,42.73
2022-11-25T03:41:56.622Z,39.77
2022-11-25T03:44:25.821Z,39.57
2022-11-25T03:46:55.197Z,40.47
2022-11-25T03:49:24.350Z,40.90
2022-11-25T03:51:53.628Z,39.13
2022-11-25T03:54:23.544Z,41.73
2022-11-25T03:57:29.598Z,40.63
2022-11-25T03:59:58.812Z,38.03
2022-11-25T04:02:28.591Z,42.30
2022-11-25T04:04:57.964Z,41.70
2022-11-25T04:07:29.270Z,41.33
2022-11-25T04:10:00.509Z,40.40
2022-11-25T04:12:50.500Z,41.83
2022-11-25T04:15:27.076Z,42.80
2022-11-25T04:17:59.621Z,43.40
2022-11-25T04:20:29.034Z,41.93
2022-11-25T04:23:07.454Z,41.53
2022-11-25T04:25:41.100Z,41.90
2022-11-25T04:28:16.749Z,40.33
2022-11-25T04:30:46.171Z,42.83
2022-11-25T04:33:15.116Z,41.53
2022-11-25T04:35:47.197Z,43.70
2022-11-25T04:38:16.273Z,43.07
2022-11-25T04:40:45.472Z,41.83
2022-11-25T04:43:26.557Z,42.10
2022-11-25T04:46:20.221Z,43.43
2022-11-25T04:48:52.356Z,42.33
2022-11-25T04:51:22.708Z,43.90
2022-11-25T04:53:56.067Z,43.10
2022-11-25T04:56:27.201Z,43.30
2022-11-25T04:59:16.676Z,44.17
2022-11-25T05:01:50.686Z,43.77
2022-11-25T05:04:30.600Z,43.77
2022-11-25T05:07:00.225Z,42.83
2022-11-25T05:09:32.564Z,44.87
2022-11-25T05:12:27.099Z,42.80
2022-11-25T05:14:58.934Z,41.87
2022-11-25T05:17:31.386Z,42.97
2022-11-25T05:20:02.134Z,42.27
2022-11-25T05:22:35.117Z,44.53
2022-11-25T05:25:07.807Z,42.87
2022-11-25T05:27:43.700Z,42.97
2022-11-25T05:30:15.941Z,41.83
2022-11-25T05:32:45.268Z,42.73
2022-11-25T05:35:14.695Z,44.23
2022-11-25T05:37:46.326Z,42.93
2022-11-25T05:40:16.286Z,42.53
2022-11-25T05:43:05.351Z,41.83
2022-11-25T05:45:40.578Z,41.30
2022-11-25T05:48:11.849Z,42.97
2022-11-25T05:50:43.365Z,40.90
2022-11-25T05:53:20.071Z,40.17
2022-11-25T05:55:57.507Z,41.20
2022-11-25T05:58:50.042Z,40.80
2022-11-25T06:01:21.535Z,39.93
2022-11-25T06:03:50.785Z,40.80
2022-11-25T06:06:21.039Z,39.50
2022-11-25T06:08:49.914Z,38.47
2022-11-25T06:11:22.264Z,36.87
2022-11-25T06:13:53.933Z,38.37
2022-11-25T06:16:26.456Z,39.73
2022-11-25T06:19:07.034Z,39.73
2022-11-25T06:21:36.997Z,37.33
2022-11-25T06:24:06.503Z,39.50
2022-11-25T06:26:36.267Z,39.87
2022-11-25T06:29:05.545Z,38.77
2022-11-25T06:31:36.115Z,40.87
2022-11-25T06:34:24.270Z,39.83
2022-11-25T06:36:54.281Z,39.57
2022-11-25T06:39:23.376Z,39.47
2022-11-25T06:41:53.024Z,41.43
2022-11-25T06:44:22.526Z,40.93
2022-11-25T06:46:53.629Z,41.33
2022-11-25T06:49:23.203Z,43.53
2022-11-25T06:51:54.764Z,44.90
2022-11-25T06:54:25.385Z,43.63
2022-11-25T06:56:55.290Z,45.17
2022-11-25T06:59:25.530Z,47.60
2022-11-25T07:01:56.119Z,47.03
2022-11-25T07:04:26.583Z,49.00
2022-11-25T07:06:56.336Z,44.87
2022-11-25T07:09:31.619Z,46.23
2022-11-25T07:12:00.943Z,45.07
2022-11-25T07:14:30.167Z,43.43
2022-11-25T07:17:07.426Z,45.57
2022-11-25T07:19:40.963Z,44.77
2022-11-25T07:22:10.922Z,42.33
2022-11-25T07:24:40.473Z,42.73
2022-11-25T07:27:10.076Z,44.27
2022-11-25T07:32:30.170Z,42.73
2022-11-25T07:35:01.951Z,43.27
2022-11-25T07:37:31.451Z,43.30
2022-11-25T07:40:03.063Z,45.07
2022-11-25T07:42:34.247Z,44.80
2022-11-25T07:45:04.779Z,44.33
2022-11-25T07:47:45.157Z,45.90
2022-11-25T07:50:14.491Z,45.77
2022-11-25T07:52:43.524Z,45.53
2022-11-25T07:55:13.163Z,41.50
2022-11-25T07:57:42.551Z,42.43
2022-11-25T08:00:14.918Z,40.97
2022-11-25T08:02:49.110Z,40.13
2022-11-25T08:05:19.354Z,40.37
2022-11-25T08:07:49.319Z,38.77
2022-11-25T08:10:19.930Z,40.03
2022-11-25T08:12:49.652Z,42.67
2022-11-25T08:15:20.068Z,41.77
2022-11-25T08:17:53.424Z,45.33
2022-11-25T08:20:23.293Z,46.30
2022-11-25T08:22:52.814Z,45.70
2022-11-25T08:25:22.079Z,46.03
2022-11-25T08:27:51.350Z,43.40
2022-11-25T08:30:21.818Z,45.40
2022-11-25T08:32:52.354Z,43.97
2022-11-25T08:35:22.225Z,43.87
2022-11-25T08:37:51.469Z,45.73
2022-11-25T08:40:21.508Z,42.97
2022-11-25T08:42:50.564Z,42.77
2022-11-25T08:45:19.459Z,41.67
2022-11-25T08:47:48.767Z,39.67
2022-11-25T08:50:20.052Z,38.97
2022-11-25T08:52:49.984Z,39.13
2022-11-25T08:55:19.501Z,39.53
2022-11-25T08:57:48.676Z,37.90
2022-11-25T09:00:18.734Z,39.57
2022-11-25T09:02:47.744Z,39.07
2022-11-25T09:05:20.638Z,40.77
2022-11-25T09:07:51.041Z,38.60
2022-11-25T09:10:20.748Z,37.70
2022-11-25T09:12:50.278Z,37.37
2022-11-25T09:15:20.742Z,36.47
2022-11-25T09:17:50.035Z,36.57
2022-11-25T09:20:21.033Z,34.83
2022-11-25T09:22:51.153Z,32.10
2022-11-25T09:25:20.152Z,34.43
2022-11-25T09:27:49.244Z,33.30
2022-11-25T09:30:18.229Z,32.80
2022-11-25T09:32:53.371Z,36.53
2022-11-25T09:35:25.584Z,32.23
2022-11-25T09:37:55.306Z,33.93
2022-11-25T09:40:38.096Z,35.27
2022-11-25T09:43:37.347Z,29.10
2022-11-25T09:46:31.410Z,31.20
2022-11-25T09:49:09.694Z,34.40
2022-11-25T09:51:56.831Z,34.57
2022-11-25T09:54:36.966Z,36.20
2022-11-25T09:57:23.454Z,36.07
2022-11-25T10:00:05.857Z,38.50
2022-11-25T10:02:48.249Z,38.73
2022-11-25T10:05:23.639Z,37.93
2022-11-25T10:08:01.070Z,39.97
2022-11-25T10:10:37.447Z,38.90
2022-11-25T10:13:13.171Z,39.37
2022-11-25T10:15:47.556Z,38.43
2022-11-25T10:18:23.383Z,39.80
2022-11-25T10:20:54.504Z,37.20
2022-11-25T10:23:29.036Z,38.00
2022-11-25T10:26:02.655Z,37.17
2022-11-25T10:28:34.674Z,32.37
2022-11-25T10:31:08.612Z,33.93
2022-11-25T10:33:42.033Z,31.07
2022-11-25T10:36:18.277Z,28.10
2022-11-25T10:38:59.434Z,29.07
2022-11-25T10:41:31.906Z,27.43
2022-11-25T10:44:01.212Z,26.03
2022-11-25T10:47:11.234Z,23.57
2022-11-25T10:49:31.915Z,23.23
2022-11-25T10:52:01.323Z,22.47
2022-11-25T10:54:32.208Z,22.60
2022-11-25T10:57:03.639Z,22.70
2022-11-25T10:59:35.535Z,22.70
2022-11-25T11:02:25.797Z,21.63
2022-11-25T11:05:01.547Z,20.30
2022-11-25T11:07:33.690Z,19.47
2022-11-25T11:10:25.956Z,18.83
2022-11-25T11:13:02.370Z,19.17
2022-11-25T11:15:33.832Z,25.40
2022-11-25T11:18:22.423Z,20.10
2022-11-25T11:20:53.371Z,19.87
2022-11-25T11:23:23.152Z,20.70
2022-11-25T11:26:02.292Z,19.50
2022-11-25T11:28:40.681Z,18.47
2022-11-25T11:31:19.871Z,18.57
2022-11-25T11:34:01.038Z,16.47
2022-11-25T11:36:43.821Z,17.13
2022-11-25T11:39:36.218Z,17.47
2022-11-25T11:42:16.626Z,15.57
2022-11-25T11:45:00.693Z,14.50
2022-11-25T11:47:35.966Z,14.60
2022-11-25T11:50:28.143Z,14.17
2022-11-25T11:53:04.166Z,13.27
2022-11-25T11:56:33.123Z,13.30
2022-11-25T11:59:14.253Z,12.47
2022-11-25T12:02:00.140Z,14.10
2022-11-25T12:04:32.963Z,14.67
2022-11-25T12:07:07.989Z,12.00
2022-11-25T12:09:43.807Z,12.33
2022-11-25T12:12:21.235Z,11.83
2022-11-25T12:14:56.268Z,13.47
2022-11-25T12:17:30.609Z,13.27
2022-11-25T12:20:05.684Z,12.17
2022-11-25T12:22:39.396Z,12.27
2022-11-25T12:25:13.327Z,13.27
2022-11-25T12:27:48.008Z,13.73
2022-11-25T12:30:21.520Z,17.90
2022-11-25T12:33:01.491Z,19.00
2022-11-25T12:35:42.088Z,17.67
2022-11-25T12:38:21.139Z,14.87
2022-11-25T12:40:57.223Z,15.70
2022-11-25T12:43:35.347Z,16.00
2022-11-25T12:46:20.655Z,15.23
2022-11-25T12:48:51.678Z,14.40
2022-11-25T12:51:34.193Z,14.00
2022-11-25T12:54:20.438Z,12.00
2022-11-25T12:57:30.158Z,12.07
2022-11-25T13:00:39.777Z,12.10
2022-11-25T13:03:32.191Z,12.17
2022-11-25T13:06:20.097Z,12.80
2022-11-25T13:08:59.566Z,13.03
2022-11-25T13:11:58.239Z,13.40
2022-11-25T13:14:41.854Z,13.33
2022-11-25T13:17:14.187Z,11.60
2022-11-25T13:19:45.128Z,12.33
2022-11-25T13:22:30.100Z,12.70
2022-11-25T13:25:00.534Z,11.60
2022-11-25T13:27:36.412Z,18.60
2022-11-25T13:30:06.262Z,16.47
2022-11-25T13:32:43.940Z,12.27
2022-11-25T13:35:55.155Z,12.90
2022-11-25T13:39:01.192Z,13.37
2022-11-25T13:41:45.770Z,13.17
2022-11-25T13:44:30.384Z,14.43
2022-11-25T13:47:01.995Z,14.77
2022-11-25T13:49:37.547Z,15.13
2022-11-25T13:52:37.518Z,14.53
2022-11-25T13:55:23.455Z,14.07
2022-11-25T13:58:09.254Z,14.53
2022-11-25T14:01:05.655Z,17.63
2022-11-25T14:03:53.695Z,18.77
2022-11-25T14:06:41.238Z,19.77
2022-11-25T14:09:23.633Z,21.10
2022-11-25T14:12:06.949Z,21.67
2022-11-25T14:15:03.427Z,21.03
2022-11-25T14:17:50.087Z,20.17
2022-11-25T14:20:36.608Z,18.17
2022-11-25T14:23:31.333Z,16.80
2022-11-25T14:26:21.092Z,19.30
2022-11-25T14:29:03.962Z,19.07
2022-11-25T14:31:40.725Z,18.87
2022-11-25T14:34:18.198Z,22.03
2022-11-25T14:36:52.552Z,21.37
2022-11-25T14:39:27.855Z,21.67
2022-11-25T14:42:04.580Z,18.30
2022-11-25T14:44:42.116Z,16.80
2022-11-25T14:47:11.169Z,16.17
2022-11-25T14:50:05.269Z,17.00
2022-11-25T14:52:39.476Z,18.20
2022-11-25T14:55:10.586Z,16.67
2022-11-25T14:57:46.420Z,16.50
2022-11-25T15:00:18.368Z,17.30
2022-11-25T15:02:56.412Z,16.50
2022-11-25T15:05:27.974Z,17.30
2022-11-25T15:08:04.037Z,17.13
2022-11-25T15:10:41.441Z,18.60
2022-11-25T15:13:34.857Z,22.83
2022-11-25T15:16:12.052Z,28.53
2022-11-25T15:18:49.203Z,20.33
2022-11-25T15:21:23.027Z,20.03
2022-11-25T15:23:52.081Z,22.27
2022-11-25T15:26:24.444Z,25.30
2022-11-25T15:28:59.132Z,23.83
2022-11-25T15:31:31.692Z,21.20
2022-11-25T15:34:04.151Z,21.97
2022-11-25T15:36:33.729Z,21.50
2022-11-25T15:39:16.635Z,21.10
2022-11-25T15:41:48.067Z,20.00
2022-11-25T15:44:24.297Z,20.07
2022-11-25T15:46:58.211Z,28.30
2022-11-25T15:49:27.870Z,24.33
2022-11-25T15:52:01.425Z,19.63
2022-11-25T15:54:33.939Z,20.47
2022-11-25T15:57:13.805Z,19.47
2022-11-25T15:59:53.318Z,18.43
2022-11-25T16:02:52.034Z,19.27
2022-11-25T16:05:28.640Z,20.57
2022-11-25T16:08:32.718Z,21.33
2022-11-25T16:11:12.870Z,21.27
2022-11-25T16:13:42.245Z,22.50
2022-11-25T16:16:30.061Z,22.20
2022-11-25T16:19:21.837Z,22.57
2022-11-25T16:22:03.676Z,23.87
2022-11-25T16:24:42.315Z,27.50
2022-11-25T16:27:25.320Z,25.87
2022-11-25T16:29:57.399Z,24.30
2022-11-25T16:32:30.185Z,24.83
2022-11-25T16:35:15.607Z,24.87
2022-11-25T16:37:48.915Z,24.83
2022-11-25T16:40:21.887Z,23.40
2022-11-25T16:42:54.184Z,21.77
2022-11-25T16:45:26.400Z,20.60
2022-11-25T16:48:00.167Z,20.63
2022-11-25T16:50:29.428Z,20.40
2022-11-25T16:52:58.455Z,20.57
2022-11-25T16:55:31.157Z,22.67
2022-11-25T16:58:01.204Z,23.93
2022-11-25T17:00:30.676Z,21.50
2022-11-25T17:03:01.896Z,22.07
2022-11-25T17:05:33.089Z,21.30
2022-11-25T17:08:03.501Z,21.83
2022-11-25T17:10:33.014Z,23.17
2022-11-25T17:13:03.846Z,22.03
2022-11-25T17:15:36.314Z,22.97
2022-11-25T17:18:10.739Z,22.60
2022-11-25T17:20:39.916Z,25.00
2022-11-25T17:23:14.554Z,24.03
2022-11-25T17:25:46.191Z,25.03
2022-11-25T17:28:18.416Z,25.83
2022-11-25T17:30:48.250Z,23.60
2022-11-25T17:33:22.041Z,25.47
2022-11-25T17:35:52.945Z,26.30
2022-11-25T17:38:23.997Z,28.43
2022-11-25T17:40:54.248Z,25.70
2022-11-25T17:43:29.220Z,25.70
2022-11-25T17:46:02.577Z,27.53
2022-11-25T17:48:33.814Z,29.20
2022-11-25T17:51:07.539Z,29.87
2022-11-25T17:53:38.422Z,35.07
2022-11-25T17:56:20.104Z,36.37
2022-11-25T17:58:50.280Z,39.47
2022-11-25T18:01:20.605Z,35.13
2022-11-25T18:04:16.320Z,41.93
2022-11-25T18:06:45.920Z,41.87
2022-11-25T18:09:15.785Z,39.40
2022-11-25T18:11:48.140Z,39.67
2022-11-25T18:14:24.115Z,39.87
2022-11-25T18:16:55.124Z,39.77
2022-11-25T18:19:28.290Z,39.20
2022-11-25T18:22:04.208Z,35.23
2022-11-25T18:24:33.817Z,35.30
2022-11-25T18:27:47.190Z,39.03
2022-11-25T18:30:19.986Z,39.53
2022-11-25T18:32:50.583Z,40.63
2022-11-25T18:35:24.610Z,33.27
2022-11-25T18:37:54.091Z,29.40
2022-11-25T18:40:23.133Z,32.93
2022-11-25T18:42:56.276Z,34.67
2022-11-25T18:45:31.556Z,28.87
2022-11-25T18:48:01.428Z,29.93
2022-11-25T18:50:34.035Z,34.27
2022-11-25T18:53:03.765Z,36.33
2022-11-25T18:55:34.268Z,38.60
2022-11-25T18:58:04.331Z,40.33
2022-11-25T19:00:33.810Z,43.77
2022-11-25T19:03:06.041Z,42.87
2022-11-25T19:05:38.742Z,39.87
2022-11-25T19:08:10.861Z,42.90
2022-11-25T19:10:42.567Z,38.50
2022-11-25T19:13:17.822Z,37.73
2022-11-25T19:15:47.933Z,36.73
2022-11-25T19:18:28.346Z,45.20
2022-11-25T19:20:59.397Z,45.40
2022-11-25T19:23:31.823Z,42.67
2022-11-25T19:26:10.639Z,47.67
2022-11-25T19:28:42.857Z,45.40
2022-11-25T19:31:18.134Z,42.37
2022-11-25T19:33:52.185Z,42.63
2022-11-25T19:36:27.760Z,41.03
2022-11-25T19:38:58.491Z,39.33
2022-11-25T19:41:29.826Z,43.53
2022-11-25T19:43:59.725Z,41.90
2022-11-25T19:46:52.432Z,42.63
2022-11-25T19:49:24.624Z,40.43
2022-11-25T19:52:00.445Z,38.97
2022-11-25T19:54:30.884Z,35.87
2022-11-25T19:57:03.091Z,36.97
2022-11-25T19:59:32.423Z,38.30
2022-11-25T20:02:01.931Z,35.87
2022-11-25T20:04:31.195Z,45.80
2022-11-25T20:07:07.460Z,46.00
2022-11-25T20:09:36.905Z,44.03
2022-11-25T20:12:22.891Z,45.20
2022-11-25T20:14:53.613Z,43.90
2022-11-25T20:17:27.628Z,45.10
2022-11-25T20:20:00.661Z,45.00
2022-11-25T20:22:36.503Z,46.83
2022-11-25T20:25:11.188Z,44.47
2022-11-25T20:27:41.179Z,47.43
2022-11-25T20:30:20.562Z,48.23
2022-11-25T20:32:50.300Z,51.10
2022-11-25T20:35:21.251Z,48.10
2022-11-25T20:37:55.679Z,46.40
2022-11-25T20:40:29.317Z,45.13
2022-11-25T20:43:00.056Z,44.90
2022-11-25T20:45:29.736Z,46.47
2022-11-25T20:47:59.663Z,46.63
2022-11-25T20:50:32.157Z,53.20
2022-11-25T20:53:04.361Z,49.07
2022-11-25T20:55:34.146Z,50.90
2022-11-25T20:58:03.797Z,46.03
2022-11-25T21:00:34.325Z,49.07
2022-11-25T21:03:07.170Z,46.93
2022-11-25T21:05:36.244Z,46.87
2022-11-25T21:08:11.413Z,45.07
2022-11-25T21:10:43.179Z,44.53
2022-11-25T21:13:22.469Z,38.43
2022-11-25T21:15:53.629Z,40.20
2022-11-25T21:18:24.360Z,40.00
2022-11-25T21:20:55.620Z,38.97
2022-11-25T21:23:30.132Z,41.87
2022-11-25T21:26:06.763Z,40.57
2022-11-25T21:28:42.438Z,41.13
2022-11-25T21:31:16.933Z,43.07
2022-11-25T21:33:47.160Z,44.20
2022-11-25T21:36:20.648Z,43.00
2022-11-25T21:38:59.236Z,40.57
2022-11-25T21:41:29.339Z,39.30
2022-11-25T21:43:58.812Z,39.03
2022-11-25T21:46:29.473Z,37.93
2022-11-25T21:48:58.564Z,37.63
2022-11-25T21:51:28.359Z,40.00
2022-11-25T21:54:00.856Z,39.07
2022-11-25T21:56:34.390Z,40.73
2022-11-25T21:59:07.999Z,42.13
2022-11-25T22:01:37.618Z,41.93
2022-11-25T22:04:08.775Z,45.57
2022-11-25T22:06:37.789Z,50.73
2022-11-25T22:09:09.034Z,49.27
2022-11-25T22:11:42.168Z,49.10
2022-11-25T22:14:18.893Z,51.73
2022-11-25T22:16:48.347Z,49.43
2022-11-25T22:19:22.101Z,49.67
2022-11-25T22:21:51.423Z,45.83
2022-11-25T22:24:24.042Z,46.40
2022-11-25T22:26:58.083Z,54.27
2022-11-25T22:29:39.667Z,54.47
2022-11-25T22:32:12.913Z,49.43
2022-11-25T22:34:43.003Z,45.37
2022-11-25T22:37:19.456Z,46.83
2022-11-25T22:39:51.080Z,40.57
2022-11-25T22:42:28.466Z,44.40
2022-11-25T22:44:59.736Z,43.53
2022-11-25T22:47:35.041Z,41.63
2022-11-25T22:50:06.537Z,43.53
2022-11-25T22:52:39.558Z,43.57
2022-11-25T22:55:23.203Z,45.97
2022-11-25T22:57:55.398Z,47.43
2022-11-25T23:00:27.230Z,44.17
2022-11-25T23:02:59.072Z,43.57
2022-11-25T23:05:33.499Z,44.67
2022-11-25T23:08:03.509Z,44.43
2022-11-25T23:10:34.355Z,44.63
2022-11-25T23:13:03.821Z,48.80
2022-11-25T23:15:33.355Z,47.47
2022-11-25T23:18:05.189Z,46.07
2022-11-25T23:20:37.263Z,45.00
2022-11-25T23:23:14.755Z,45.23
2022-11-25T23:25:46.902Z,44.57
2022-11-25T23:28:17.405Z,41.83
2022-11-25T23:30:50.964Z,43.20
2022-11-25T23:33:32.683Z,45.17
2022-11-25T23:36:06.093Z,43.03
2022-11-25T23:38:40.339Z,44.53
2022-11-25T23:41:17.291Z,43.80
2022-11-25T23:43:46.902Z,45.33
2022-11-25T23:46:17.635Z,43.50
2022-11-25T23:48:53.849Z,44.50
2022-11-25T23:51:24.337Z,42.17
2022-11-25T23:53:57.137Z,44.83
2022-11-25T23:56:28.654Z,42.33
2022-11-25T23:58:58.504Z,45.70
